sensor_id;sensor_type;location;lat;lon;timestamp;pressure;altitude;pressure_sealevel;temperature;humidity
41686;BME280;27370;42.764;23.432;2022-09-16T00:00:45;95034.97;;;19.52;90.65
41686;BME280;27370;42.764;23.432;2022-09-16T00:03:12;95049.81;;;19.25;92.51
41686;BME280;27370;42.764;23.432;2022-09-16T00:05:47;95034.97;;;19.17;95.45
41686;BME280;27370;42.764;23.432;2022-09-16T00:08:13;95030.91;;;19.13;94.85
41686;BME280;27370;42.764;23.432;2022-09-16T00:10:39;95030.44;;;19.14;97.85
41686;BME280;27370;42.764;23.432;2022-09-16T00:13:05;95035.00;;;19.03;99.66
41686;BME280;27370;42.764;23.432;2022-09-16T00:15:31;95030.66;;;18.81;100.00
41686;BME280;27370;42.764;23.432;2022-09-16T00:17:56;95032.84;;;18.62;100.00
41686;BME280;27370;42.764;23.432;2022-09-16T00:20:22;95035.91;;;18.55;100.00
41686;BME280;27370;42.764;23.432;2022-09-16T00:22:47;95054.63;;;18.42;100.00
41686;BME280;27370;42.764;23.432;2022-09-16T00:25:13;95052.34;;;18.41;100.00
41686;BME280;27370;42.764;23.432;2022-09-16T00:27:38;95051.94;;;18.33;100.00
41686;BME280;27370;42.764;23.432;2022-09-16T00:30:04;95039.50;;;18.47;100.00
41686;BME280;27370;42.764;23.432;2022-09-16T00:32:30;95034.38;;;18.25;100.00
41686;BME280;27370;42.764;23.432;2022-09-16T00:34:55;95034.03;;;18.47;100.00
41686;BME280;27370;42.764;23.432;2022-09-16T00:37:21;95034.75;;;18.18;100.00
41686;BME280;27370;42.764;23.432;2022-09-16T00:39:47;95035.63;;;18.00;100.00
41686;BME280;27370;42.764;23.432;2022-09-16T00:42:14;95031.38;;;17.99;100.00
41686;BME280;27370;42.764;23.432;2022-09-16T00:45:01;95030.63;;;17.98;100.00
41686;BME280;27370;42.764;23.432;2022-09-16T00:50:09;95026.13;;;17.86;100.00
41686;BME280;27370;42.764;23.432;2022-09-16T00:52:38;95037.63;;;17.75;100.00
41686;BME280;27370;42.764;23.432;2022-09-16T00:55:06;95038.13;;;17.65;100.00
41686;BME280;27370;42.764;23.432;2022-09-16T00:57:34;95041.03;;;17.61;100.00
41686;BME280;27370;42.764;23.432;2022-09-16T01:00:01;95047.72;;;17.69;100.00
41686;BME280;27370;42.764;23.432;2022-09-16T01:02:28;95045.19;;;17.57;100.00
41686;BME280;27370;42.764;23.432;2022-09-16T01:05:03;95046.34;;;17.65;100.00
41686;BME280;27370;42.764;23.432;2022-09-16T01:07:56;95052.28;;;17.63;100.00
41686;BME280;27370;42.764;23.432;2022-09-16T01:10:24;95050.00;;;17.71;100.00
41686;BME280;27370;42.764;23.432;2022-09-16T01:12:57;95046.00;;;17.48;100.00
41686;BME280;27370;42.764;23.432;2022-09-16T01:15:31;95051.69;;;17.59;100.00
41686;BME280;27370;42.764;23.432;2022-09-16T01:32:18;95051.84;;;17.32;100.00
41686;BME280;27370;42.764;23.432;2022-09-16T01:35:19;95054.28;;;17.30;100.00
41686;BME280;27370;42.764;23.432;2022-09-16T01:43:33;95051.31;;;17.42;100.00
41686;BME280;27370;42.764;23.432;2022-09-16T01:48:40;95042.41;;;17.33;100.00
41686;BME280;27370;42.764;23.432;2022-09-16T01:51:23;95057.66;;;17.25;100.00
41686;BME280;27370;42.764;23.432;2022-09-16T01:56:44;95063.78;;;17.10;100.00
41686;BME280;27370;42.764;23.432;2022-09-16T01:59:25;95045.50;;;17.26;100.00
41686;BME280;27370;42.764;23.432;2022-09-16T02:04:24;95042.78;;;17.17;100.00
41686;BME280;27370;42.764;23.432;2022-09-16T02:06:52;95045.50;;;16.83;100.00
41686;BME280;27370;42.764;23.432;2022-09-16T02:09:22;95044.06;;;16.97;100.00
41686;BME280;27370;42.764;23.432;2022-09-16T02:11:51;95033.50;;;16.81;100.00
41686;BME280;27370;42.764;23.432;2022-09-16T02:14:22;95024.03;;;16.91;100.00
41686;BME280;27370;42.764;23.432;2022-09-16T02:17:02;95030.09;;;17.04;100.00
41686;BME280;27370;42.764;23.432;2022-09-16T02:22:09;95033.97;;;17.22;100.00
41686;BME280;27370;42.764;23.432;2022-09-16T02:24:37;95028.44;;;17.31;100.00
41686;BME280;27370;42.764;23.432;2022-09-16T02:27:06;95018.47;;;17.19;100.00
41686;BME280;27370;42.764;23.432;2022-09-16T02:29:41;95015.19;;;17.05;100.00
41686;BME280;27370;42.764;23.432;2022-09-16T02:32:08;95039.69;;;17.00;100.00
41686;BME280;27370;42.764;23.432;2022-09-16T02:34:40;95038.53;;;17.15;100.00
41686;BME280;27370;42.764;23.432;2022-09-16T02:39:53;95029.72;;;17.21;100.00
41686;BME280;27370;42.764;23.432;2022-09-16T02:42:22;95032.00;;;17.13;100.00
41686;BME280;27370;42.764;23.432;2022-09-16T02:44:48;95046.97;;;16.94;100.00
41686;BME280;27370;42.764;23.432;2022-09-16T02:47:33;95042.25;;;16.94;100.00
41686;BME280;27370;42.764;23.432;2022-09-16T02:56:09;95038.75;;;17.03;100.00
41686;BME280;27370;42.764;23.432;2022-09-16T02:58:37;95047.16;;;16.90;100.00
41686;BME280;27370;42.764;23.432;2022-09-16T03:01:03;95053.81;;;16.98;100.00
41686;BME280;27370;42.764;23.432;2022-09-16T03:03:29;95052.59;;;16.99;100.00
41686;BME280;27370;42.764;23.432;2022-09-16T03:08:33;95060.53;;;16.88;100.00
41686;BME280;27370;42.764;23.432;2022-09-16T03:11:08;95078.16;;;16.87;100.00
41686;BME280;27370;42.764;23.432;2022-09-16T03:13:54;95084.13;;;16.67;100.00
41686;BME280;27370;42.764;23.432;2022-09-16T03:17:02;95087.28;;;16.66;100.00
41686;BME280;27370;42.764;23.432;2022-09-16T03:19:38;95083.31;;;16.85;100.00
41686;BME280;27370;42.764;23.432;2022-09-16T03:22:17;95082.69;;;16.90;100.00
41686;BME280;27370;42.764;23.432;2022-09-16T03:27:29;95085.63;;;16.77;100.00
41686;BME280;27370;42.764;23.432;2022-09-16T03:30:07;95100.78;;;16.88;100.00
41686;BME280;27370;42.764;23.432;2022-09-16T03:35:11;95079.38;;;16.86;100.00
41686;BME280;27370;42.764;23.432;2022-09-16T03:37:42;95055.22;;;16.84;100.00
41686;BME280;27370;42.764;23.432;2022-09-16T03:40:11;95051.22;;;16.95;100.00
41686;BME280;27370;42.764;23.432;2022-09-16T03:42:42;95083.16;;;16.89;100.00
41686;BME280;27370;42.764;23.432;2022-09-16T03:45:13;95075.38;;;16.96;100.00
41686;BME280;27370;42.764;23.432;2022-09-16T03:47:39;95075.00;;;16.79;100.00
41686;BME280;27370;42.764;23.432;2022-09-16T03:50:05;95072.81;;;16.93;100.00
41686;BME280;27370;42.764;23.432;2022-09-16T03:52:30;95079.03;;;17.02;100.00
41686;BME280;27370;42.764;23.432;2022-09-16T03:54:56;95091.66;;;17.00;100.00
41686;BME280;27370;42.764;23.432;2022-09-16T03:57:21;95090.25;;;17.04;100.00
41686;BME280;27370;42.764;23.432;2022-09-16T03:59:47;95086.06;;;16.85;100.00
41686;BME280;27370;42.764;23.432;2022-09-16T04:02:12;95075.88;;;16.86;100.00
41686;BME280;27370;42.764;23.432;2022-09-16T04:04:38;95056.31;;;16.69;100.00
41686;BME280;27370;42.764;23.432;2022-09-16T04:07:03;95064.75;;;16.98;100.00
41686;BME280;27370;42.764;23.432;2022-09-16T04:09:29;95071.47;;;17.30;100.00
41686;BME280;27370;42.764;23.432;2022-09-16T04:11:54;95067.50;;;16.98;100.00
41686;BME280;27370;42.764;23.432;2022-09-16T04:14:20;95079.97;;;16.90;100.00
41686;BME280;27370;42.764;23.432;2022-09-16T04:16:45;95076.34;;;16.84;100.00
41686;BME280;27370;42.764;23.432;2022-09-16T04:19:12;95079.50;;;16.92;100.00
41686;BME280;27370;42.764;23.432;2022-09-16T04:21:39;95072.66;;;16.96;100.00
41686;BME280;27370;42.764;23.432;2022-09-16T04:24:05;95078.88;;;16.97;100.00
41686;BME280;27370;42.764;23.432;2022-09-16T04:26:30;95088.00;;;17.03;100.00
41686;BME280;27370;42.764;23.432;2022-09-16T04:28:56;95083.91;;;16.98;100.00
41686;BME280;27370;42.764;23.432;2022-09-16T04:31:21;95095.81;;;17.19;100.00
41686;BME280;27370;42.764;23.432;2022-09-16T04:33:47;95088.25;;;17.14;100.00
41686;BME280;27370;42.764;23.432;2022-09-16T04:36:15;95085.44;;;16.90;100.00
41686;BME280;27370;42.764;23.432;2022-09-16T04:38:42;95090.72;;;17.03;100.00
41686;BME280;27370;42.764;23.432;2022-09-16T04:41:17;95097.84;;;17.09;100.00
41686;BME280;27370;42.764;23.432;2022-09-16T04:43:43;95094.47;;;17.24;100.00
41686;BME280;27370;42.764;23.432;2022-09-16T04:46:12;95094.88;;;17.31;100.00
41686;BME280;27370;42.764;23.432;2022-09-16T04:48:38;95097.53;;;17.50;100.00
41686;BME280;27370;42.764;23.432;2022-09-16T04:51:06;95114.25;;;17.52;100.00
41686;BME280;27370;42.764;23.432;2022-09-16T04:53:33;95119.16;;;17.48;100.00
41686;BME280;27370;42.764;23.432;2022-09-16T04:56:10;95107.25;;;17.51;100.00
41686;BME280;27370;42.764;23.432;2022-09-16T04:58:40;95102.56;;;17.42;100.00
41686;BME280;27370;42.764;23.432;2022-09-16T05:01:07;95097.06;;;17.51;100.00
41686;BME280;27370;42.764;23.432;2022-09-16T05:03:44;95103.25;;;17.61;100.00
41686;BME280;27370;42.764;23.432;2022-09-16T05:06:21;95099.47;;;17.67;100.00
41686;BME280;27370;42.764;23.432;2022-09-16T05:08:48;95091.53;;;17.60;100.00
41686;BME280;27370;42.764;23.432;2022-09-16T05:11:17;95081.69;;;17.87;100.00
41686;BME280;27370;42.764;23.432;2022-09-16T05:13:42;95090.91;;;18.37;100.00
41686;BME280;27370;42.764;23.432;2022-09-16T05:16:16;95092.50;;;18.05;100.00
41686;BME280;27370;42.764;23.432;2022-09-16T05:18:43;95087.19;;;18.11;100.00
41686;BME280;27370;42.764;23.432;2022-09-16T05:21:14;95077.84;;;17.93;100.00
41686;BME280;27370;42.764;23.432;2022-09-16T05:23:41;95085.19;;;18.11;100.00
41686;BME280;27370;42.764;23.432;2022-09-16T05:26:09;95071.75;;;18.37;100.00
41686;BME280;27370;42.764;23.432;2022-09-16T05:28:35;95072.25;;;18.65;100.00
41686;BME280;27370;42.764;23.432;2022-09-16T05:31:15;95070.94;;;18.90;100.00
41686;BME280;27370;42.764;23.432;2022-09-16T05:33:43;95078.88;;;19.17;100.00
41686;BME280;27370;42.764;23.432;2022-09-16T05:36:12;95077.63;;;19.33;100.00
41686;BME280;27370;42.764;23.432;2022-09-16T05:38:38;95072.00;;;19.57;100.00
41686;BME280;27370;42.764;23.432;2022-09-16T05:41:04;95070.84;;;19.64;100.00
41686;BME280;27370;42.764;23.432;2022-09-16T05:43:31;95067.72;;;19.71;100.00
41686;BME280;27370;42.764;23.432;2022-09-16T05:45:57;95071.00;;;19.75;100.00
41686;BME280;27370;42.764;23.432;2022-09-16T05:48:23;95069.84;;;19.81;100.00
41686;BME280;27370;42.764;23.432;2022-09-16T05:50:54;95067.38;;;19.83;100.00
41686;BME280;27370;42.764;23.432;2022-09-16T05:53:21;95070.31;;;19.80;100.00
41686;BME280;27370;42.764;23.432;2022-09-16T05:56:01;95061.81;;;19.78;100.00
41686;BME280;27370;42.764;23.432;2022-09-16T05:58:28;95072.66;;;19.87;100.00
41686;BME280;27370;42.764;23.432;2022-09-16T06:00:58;95065.16;;;19.87;100.00
41686;BME280;27370;42.764;23.432;2022-09-16T06:03:24;95069.53;;;19.94;100.00
41686;BME280;27370;42.764;23.432;2022-09-16T06:05:51;95076.66;;;20.06;100.00
41686;BME280;27370;42.764;23.432;2022-09-16T06:08:17;95066.56;;;19.98;100.00
41686;BME280;27370;42.764;23.432;2022-09-16T06:10:42;95064.69;;;20.09;100.00
41686;BME280;27370;42.764;23.432;2022-09-16T06:13:08;95076.66;;;20.06;100.00
41686;BME280;27370;42.764;23.432;2022-09-16T06:15:33;95080.38;;;20.24;100.00
41686;BME280;27370;42.764;23.432;2022-09-16T06:18:00;95075.41;;;20.48;100.00
41686;BME280;27370;42.764;23.432;2022-09-16T06:20:25;95080.91;;;20.48;100.00
41686;BME280;27370;42.764;23.432;2022-09-16T06:22:51;95079.50;;;20.58;100.00
41686;BME280;27370;42.764;23.432;2022-09-16T06:25:17;95081.84;;;20.65;100.00
41686;BME280;27370;42.764;23.432;2022-09-16T06:27:42;95070.59;;;20.63;100.00
41686;BME280;27370;42.764;23.432;2022-09-16T06:30:08;95069.63;;;20.66;100.00
41686;BME280;27370;42.764;23.432;2022-09-16T06:32:34;95065.88;;;20.69;100.00
41686;BME280;27370;42.764;23.432;2022-09-16T06:34:59;95058.09;;;20.42;99.78
41686;BME280;27370;42.764;23.432;2022-09-16T06:37:25;95069.66;;;20.26;100.00
41686;BME280;27370;42.764;23.432;2022-09-16T06:39:50;95058.22;;;20.33;100.00
41686;BME280;27370;42.764;23.432;2022-09-16T06:42:16;95064.25;;;20.57;98.89
41686;BME280;27370;42.764;23.432;2022-09-16T06:44:42;95069.28;;;20.85;93.04
41686;BME280;27370;42.764;23.432;2022-09-16T06:47:08;95072.88;;;20.96;90.88
41686;BME280;27370;42.764;23.432;2022-09-16T06:49:34;95076.38;;;20.97;95.27
41686;BME280;27370;42.764;23.432;2022-09-16T06:51:59;95077.03;;;21.12;94.81
41686;BME280;27370;42.764;23.432;2022-09-16T06:54:25;95075.94;;;21.30;96.11
41686;BME280;27370;42.764;23.432;2022-09-16T06:56:50;95077.06;;;21.49;90.07
41686;BME280;27370;42.764;23.432;2022-09-16T06:59:16;95069.22;;;21.74;90.64
41686;BME280;27370;42.764;23.432;2022-09-16T07:01:41;95067.13;;;22.00;87.22
41686;BME280;27370;42.764;23.432;2022-09-16T07:04:09;95070.94;;;22.14;84.63
41686;BME280;27370;42.764;23.432;2022-09-16T07:06:35;95072.25;;;22.24;82.89
41686;BME280;27370;42.764;23.432;2022-09-16T07:09:02;95075.34;;;22.48;81.19
41686;BME280;27370;42.764;23.432;2022-09-16T07:11:27;95077.09;;;22.57;82.03
41686;BME280;27370;42.764;23.432;2022-09-16T07:13:53;95075.72;;;22.89;77.99
41686;BME280;27370;42.764;23.432;2022-09-16T07:16:23;95071.19;;;22.98;83.00
41686;BME280;27370;42.764;23.432;2022-09-16T07:18:53;95070.72;;;23.10;78.35
41686;BME280;27370;42.764;23.432;2022-09-16T07:21:21;95070.44;;;23.31;75.06
41686;BME280;27370;42.764;23.432;2022-09-16T07:23:49;95073.72;;;23.40;74.94
41686;BME280;27370;42.764;23.432;2022-09-16T07:26:23;95066.16;;;23.52;78.14
41686;BME280;27370;42.764;23.432;2022-09-16T07:28:51;95064.91;;;23.70;74.82
41686;BME280;27370;42.764;23.432;2022-09-16T07:31:19;95065.91;;;23.72;74.42
41686;BME280;27370;42.764;23.432;2022-09-16T07:33:47;95065.66;;;23.70;74.46
41686;BME280;27370;42.764;23.432;2022-09-16T07:36:19;95058.31;;;23.90;75.23
41686;BME280;27370;42.764;23.432;2022-09-16T07:38:45;95058.03;;;24.04;71.97
41686;BME280;27370;42.764;23.432;2022-09-16T07:41:12;95061.78;;;24.12;75.52
41686;BME280;27370;42.764;23.432;2022-09-16T07:43:39;95050.91;;;24.31;72.84
41686;BME280;27370;42.764;23.432;2022-09-16T07:46:06;95033.31;;;24.23;72.85
41686;BME280;27370;42.764;23.432;2022-09-16T07:48:32;95031.75;;;24.39;76.21
41686;BME280;27370;42.764;23.432;2022-09-16T07:51:00;95035.66;;;24.60;70.29
41686;BME280;27370;42.764;23.432;2022-09-16T07:53:27;95044.66;;;24.66;65.13
41686;BME280;27370;42.764;23.432;2022-09-16T07:55:55;95032.84;;;24.66;62.25
41686;BME280;27370;42.764;23.432;2022-09-16T07:58:21;95034.72;;;24.88;65.19
41686;BME280;27370;42.764;23.432;2022-09-16T08:00:50;95036.66;;;24.98;62.35
41686;BME280;27370;42.764;23.432;2022-09-16T08:03:15;95030.47;;;25.22;63.37
41686;BME280;27370;42.764;23.432;2022-09-16T08:05:42;95033.31;;;25.41;62.13
41686;BME280;27370;42.764;23.432;2022-09-16T08:08:07;95016.28;;;25.56;62.27
41686;BME280;27370;42.764;23.432;2022-09-16T08:10:33;95019.84;;;25.81;56.26
41686;BME280;27370;42.764;23.432;2022-09-16T08:13:02;95011.28;;;25.79;63.18
41686;BME280;27370;42.764;23.432;2022-09-16T08:15:27;95003.97;;;25.81;60.15
41686;BME280;27370;42.764;23.432;2022-09-16T08:17:53;95004.03;;;25.94;61.09
41686;BME280;27370;42.764;23.432;2022-09-16T08:20:18;95001.50;;;26.15;58.97
41686;BME280;27370;42.764;23.432;2022-09-16T08:22:44;95000.78;;;26.34;57.48
41686;BME280;27370;42.764;23.432;2022-09-16T08:25:10;94993.38;;;26.42;51.80
41686;BME280;27370;42.764;23.432;2022-09-16T08:27:36;94993.22;;;26.72;57.24
41686;BME280;27370;42.764;23.432;2022-09-16T08:30:03;94998.50;;;26.89;56.35
41686;BME280;27370;42.764;23.432;2022-09-16T08:32:28;95000.66;;;26.96;51.37
41686;BME280;27370;42.764;23.432;2022-09-16T08:34:55;95000.44;;;26.94;55.91
41686;BME280;27370;42.764;23.432;2022-09-16T08:37:20;94993.78;;;27.15;52.35
41686;BME280;27370;42.764;23.432;2022-09-16T08:39:46;94989.28;;;26.99;52.16
41686;BME280;27370;42.764;23.432;2022-09-16T08:42:29;94988.47;;;27.18;52.74
41686;BME280;27370;42.764;23.432;2022-09-16T08:47:59;94983.44;;;27.16;50.06
41686;BME280;27370;42.764;23.432;2022-09-16T08:50:32;94989.44;;;27.20;51.79
41686;BME280;27370;42.764;23.432;2022-09-16T08:53:00;94981.16;;;27.14;48.57
41686;BME280;27370;42.764;23.432;2022-09-16T08:55:36;94971.69;;;27.36;44.12
41686;BME280;27370;42.764;23.432;2022-09-16T08:58:11;94978.97;;;27.26;47.54
41686;BME280;27370;42.764;23.432;2022-09-16T09:00:39;94976.03;;;27.05;48.08
41686;BME280;27370;42.764;23.432;2022-09-16T09:06:11;94977.91;;;26.97;53.49
41686;BME280;27370;42.764;23.432;2022-09-16T09:08:44;94984.00;;;26.96;51.25
41686;BME280;27370;42.764;23.432;2022-09-16T09:11:29;94984.25;;;26.79;50.92
41686;BME280;27370;42.764;23.432;2022-09-16T09:14:24;94986.81;;;26.77;52.06
41686;BME280;27370;42.764;23.432;2022-09-16T09:17:11;94987.81;;;26.61;51.91
41686;BME280;27370;42.764;23.432;2022-09-16T09:27:42;94989.34;;;26.94;48.23
41686;BME280;27370;42.764;23.432;2022-09-16T09:30:20;94985.31;;;27.08;47.79
41686;BME280;27370;42.764;23.432;2022-09-16T09:41:11;94975.59;;;27.14;48.40
41686;BME280;27370;42.764;23.432;2022-09-16T09:43:50;94974.56;;;27.31;47.20
41686;BME280;27370;42.764;23.432;2022-09-16T09:46:22;94972.75;;;27.20;45.71
41686;BME280;27370;42.764;23.432;2022-09-16T09:51:54;94988.50;;;26.99;48.82
41686;BME280;27370;42.764;23.432;2022-09-16T09:59:46;94992.13;;;26.94;50.12
41686;BME280;27370;42.764;23.432;2022-09-16T10:02:16;94994.91;;;26.94;54.39
41686;BME280;27370;42.764;23.432;2022-09-16T10:04:42;94994.66;;;26.92;53.58
41686;BME280;27370;42.764;23.432;2022-09-16T10:07:08;95006.69;;;27.00;52.41
41686;BME280;27370;42.764;23.432;2022-09-16T10:09:35;95012.69;;;27.04;54.03
41686;BME280;27370;42.764;23.432;2022-09-16T10:12:08;95009.72;;;27.15;48.87
41686;BME280;27370;42.764;23.432;2022-09-16T10:14:36;95020.09;;;27.14;50.53
41686;BME280;27370;42.764;23.432;2022-09-16T10:17:04;95041.22;;;26.85;53.30
41686;BME280;27370;42.764;23.432;2022-09-16T10:19:34;95057.56;;;26.33;56.18
41686;BME280;27370;42.764;23.432;2022-09-16T10:22:31;95066.34;;;25.39;70.29
41686;BME280;27370;42.764;23.432;2022-09-16T10:25:03;95084.50;;;24.58;84.15
41686;BME280;27370;42.764;23.432;2022-09-16T10:27:36;95112.66;;;23.70;87.97
41686;BME280;27370;42.764;23.432;2022-09-16T10:30:06;95141.22;;;22.95;95.55
41686;BME280;27370;42.764;23.432;2022-09-16T10:33:01;95174.09;;;22.33;97.82
41686;BME280;27370;42.764;23.432;2022-09-16T10:35:33;95206.97;;;21.99;100.00
41686;BME280;27370;42.764;23.432;2022-09-16T10:38:06;95228.03;;;21.19;100.00
41686;BME280;27370;42.764;23.432;2022-09-16T10:40:51;95228.00;;;20.17;100.00
41686;BME280;27370;42.764;23.432;2022-09-16T10:43:17;95245.28;;;19.44;100.00
41686;BME280;27370;42.764;23.432;2022-09-16T10:45:45;95262.56;;;19.06;100.00
41686;BME280;27370;42.764;23.432;2022-09-16T10:48:18;95261.38;;;18.83;100.00
41686;BME280;27370;42.764;23.432;2022-09-16T10:53:21;95253.06;;;18.45;100.00
41686;BME280;27370;42.764;23.432;2022-09-16T10:55:56;95253.06;;;18.45;100.00
41686;BME280;27370;42.764;23.432;2022-09-16T10:58:22;95246.53;;;18.42;100.00
41686;BME280;27370;42.764;23.432;2022-09-16T11:06:38;95225.97;;;18.14;100.00
41686;BME280;27370;42.764;23.432;2022-09-16T11:15:43;95151.56;;;18.30;100.00
41686;BME280;27370;42.764;23.432;2022-09-16T11:18:18;95130.63;;;18.42;100.00
41686;BME280;27370;42.764;23.432;2022-09-16T11:29:19;95102.91;;;19.22;100.00
41686;BME280;27370;42.764;23.432;2022-09-16T11:32:27;95091.63;;;19.35;100.00
41686;BME280;27370;42.764;23.432;2022-09-16T11:37:40;95074.38;;;19.49;100.00
41686;BME280;27370;42.764;23.432;2022-09-16T11:50:42;95056.22;;;20.33;100.00
41686;BME280;27370;42.764;23.432;2022-09-16T11:55:50;95040.88;;;20.99;100.00
41686;BME280;27370;42.764;23.432;2022-09-16T11:58:34;95041.69;;;21.36;100.00
41686;BME280;27370;42.764;23.432;2022-09-16T12:01:34;95051.84;;;21.25;100.00
41686;BME280;27370;42.764;23.432;2022-09-16T12:04:08;95053.69;;;21.33;100.00
41686;BME280;27370;42.764;23.432;2022-09-16T12:07:09;95057.25;;;21.45;100.00
41686;BME280;27370;42.764;23.432;2022-09-16T12:09:35;95060.38;;;21.27;100.00
41686;BME280;27370;42.764;23.432;2022-09-16T12:12:16;95056.94;;;21.32;100.00
41686;BME280;27370;42.764;23.432;2022-09-16T12:14:49;95060.31;;;21.21;100.00
41686;BME280;27370;42.764;23.432;2022-09-16T12:17:22;95061.84;;;21.22;100.00
41686;BME280;27370;42.764;23.432;2022-09-16T12:20:13;95064.78;;;21.45;100.00
41686;BME280;27370;42.764;23.432;2022-09-16T12:22:51;95054.75;;;21.42;100.00
41686;BME280;27370;42.764;23.432;2022-09-16T12:25:26;95050.63;;;21.63;100.00
41686;BME280;27370;42.764;23.432;2022-09-16T12:27:57;95073.78;;;21.82;100.00
41686;BME280;27370;42.764;23.432;2022-09-16T12:30:29;95066.19;;;21.71;100.00
41686;BME280;27370;42.764;23.432;2022-09-16T12:33:04;95065.44;;;21.71;100.00
41686;BME280;27370;42.764;23.432;2022-09-16T12:35:33;95066.41;;;21.68;100.00
41686;BME280;27370;42.764;23.432;2022-09-16T12:38:00;95075.88;;;21.56;100.00
41686;BME280;27370;42.764;23.432;2022-09-16T12:40:28;95073.28;;;21.41;100.00
41686;BME280;27370;42.764;23.432;2022-09-16T12:43:03;95075.00;;;21.38;100.00
41686;BME280;27370;42.764;23.432;2022-09-16T12:45:57;95067.09;;;21.52;100.00
41686;BME280;27370;42.764;23.432;2022-09-16T12:59:34;95109.09;;;21.47;100.00
41686;BME280;27370;42.764;23.432;2022-09-16T13:02:16;95117.00;;;21.65;100.00
41686;BME280;27370;42.764;23.432;2022-09-16T13:04:52;95132.97;;;21.92;100.00
41686;BME280;27370;42.764;23.432;2022-09-16T13:07:29;95132.53;;;21.99;100.00
41686;BME280;27370;42.764;23.432;2022-09-16T13:10:14;95143.97;;;22.24;100.00
41686;BME280;27370;42.764;23.432;2022-09-16T13:12:41;95144.72;;;21.87;100.00
41686;BME280;27370;42.764;23.432;2022-09-16T13:15:24;95155.22;;;21.83;100.00
41686;BME280;27370;42.764;23.432;2022-09-16T13:17:50;95156.47;;;21.82;100.00
41686;BME280;27370;42.764;23.432;2022-09-16T13:20:36;95155.81;;;21.61;100.00
41686;BME280;27370;42.764;23.432;2022-09-16T13:23:15;95168.06;;;21.29;100.00
41686;BME280;27370;42.764;23.432;2022-09-16T13:26:01;95171.13;;;20.85;100.00
41686;BME280;27370;42.764;23.432;2022-09-16T13:28:38;95167.97;;;20.51;100.00
41686;BME280;27370;42.764;23.432;2022-09-16T13:33:36;95158.44;;;20.11;100.00
41686;BME280;27370;42.764;23.432;2022-09-16T13:38:56;95139.75;;;20.15;100.00
41686;BME280;27370;42.764;23.432;2022-09-16T13:46:52;95106.56;;;19.99;100.00
41686;BME280;27370;42.764;23.432;2022-09-16T13:49:25;95064.38;;;20.02;100.00
41686;BME280;27370;42.764;23.432;2022-09-16T13:51:52;95038.03;;;20.15;100.00
41686;BME280;27370;42.764;23.432;2022-09-16T14:05:25;95011.34;;;20.42;100.00
41686;BME280;27370;42.764;23.432;2022-09-16T14:09:09;95008.56;;;20.62;100.00
41686;BME280;27370;42.764;23.432;2022-09-16T14:14:03;95013.06;;;20.39;100.00
41686;BME280;27370;42.764;23.432;2022-09-16T14:16:32;95038.22;;;20.53;100.00
41686;BME280;27370;42.764;23.432;2022-09-16T14:19:40;95058.81;;;20.89;100.00
41686;BME280;27370;42.764;23.432;2022-09-16T14:22:13;95106.19;;;20.72;100.00
41686;BME280;27370;42.764;23.432;2022-09-16T14:24:40;95118.88;;;20.64;100.00
41686;BME280;27370;42.764;23.432;2022-09-16T14:30:15;95084.81;;;20.88;100.00
41686;BME280;27370;42.764;23.432;2022-09-16T14:32:41;95073.81;;;20.88;100.00
41686;BME280;27370;42.764;23.432;2022-09-16T14:35:09;95067.38;;;20.96;100.00
41686;BME280;27370;42.764;23.432;2022-09-16T14:37:37;95053.53;;;20.85;100.00
41686;BME280;27370;42.764;23.432;2022-09-16T14:40:10;95056.06;;;20.89;100.00
41686;BME280;27370;42.764;23.432;2022-09-16T14:42:42;95050.22;;;20.81;100.00
41686;BME280;27370;42.764;23.432;2022-09-16T14:45:13;95049.53;;;20.86;100.00
41686;BME280;27370;42.764;23.432;2022-09-16T14:47:41;95040.25;;;20.84;100.00
41686;BME280;27370;42.764;23.432;2022-09-16T14:50:42;95039.88;;;20.70;100.00
41686;BME280;27370;42.764;23.432;2022-09-16T14:53:27;95037.94;;;20.76;100.00
41686;BME280;27370;42.764;23.432;2022-09-16T14:55:53;95052.63;;;20.68;100.00
41686;BME280;27370;42.764;23.432;2022-09-16T14:58:19;95041.34;;;20.66;100.00
41686;BME280;27370;42.764;23.432;2022-09-16T15:00:50;95036.88;;;20.68;100.00
41686;BME280;27370;42.764;23.432;2022-09-16T15:03:22;95046.63;;;20.69;100.00
41686;BME280;27370;42.764;23.432;2022-09-16T15:05:49;95051.31;;;20.63;100.00
41686;BME280;27370;42.764;23.432;2022-09-16T15:11:02;95060.66;;;20.71;100.00
41686;BME280;27370;42.764;23.432;2022-09-16T15:13:34;95056.78;;;20.84;100.00
41686;BME280;27370;42.764;23.432;2022-09-16T15:16:10;95062.91;;;20.99;100.00
41686;BME280;27370;42.764;23.432;2022-09-16T15:18:39;95060.66;;;20.71;100.00
41686;BME280;27370;42.764;23.432;2022-09-16T15:21:19;95047.75;;;20.57;100.00
41686;BME280;27370;42.764;23.432;2022-09-16T15:23:50;95035.47;;;20.53;100.00
41686;BME280;27370;42.764;23.432;2022-09-16T15:26:22;95024.41;;;20.47;100.00
41686;BME280;27370;42.764;23.432;2022-09-16T15:29:01;94986.47;;;20.57;100.00
41686;BME280;27370;42.764;23.432;2022-09-16T15:31:37;94981.59;;;20.40;100.00
41686;BME280;27370;42.764;23.432;2022-09-16T15:39:24;94969.44;;;20.53;100.00
41686;BME280;27370;42.764;23.432;2022-09-16T15:42:08;94976.19;;;20.52;100.00
41686;BME280;27370;42.764;23.432;2022-09-16T15:44:35;94980.19;;;20.51;100.00
41686;BME280;27370;42.764;23.432;2022-09-16T15:47:01;94974.28;;;20.37;100.00
41686;BME280;27370;42.764;23.432;2022-09-16T15:49:29;94992.34;;;20.18;100.00